Drobaksund III — LKJO — position and weather

sailwx.info

Track history (hours):
 
Tides and Currents Weather Stations Pressure Air Temp Water Temp Dewpoint Dewpoint Depression Visibility Wind Speed Wind Dir Waves Ship Positions

Drobaksund III

Last reported at 2014-Aug-31 13:33 UTC. Time now 2014-Sep-02 02:00 UTC.
Position N 49°34' W 000°20'.

Length 57 m; draft 3 m.

Type: Ship (hazmat cat A). MMSI: 257235400.

Date/timePositionNaut miles runAvg speedWind from/ knotsBaromVisibWave heightAir tempDewpointWater temp
2014-Aug-31 13:33N 49°34' W 000°20'6 6.3
2014-Aug-31 12:33N 49°32' W 000°11'6 5.9
2014-Aug-31 11:33N 49°29' W 000°03'6 5.7
2014-Aug-31 10:34N 49°29' E 000°06'1 1.0
2014-Aug-31 09:34N 49°29' E 000°08'0 0.0
2014-Aug-31 08:34N 49°29' E 000°08'0 0.0
2014-Aug-31 07:34N 49°29' E 000°08'0 0.0
2014-Aug-31 06:34N 49°29' E 000°08'0 0.0
2014-Aug-31 05:34N 49°29' E 000°08'0 0.0
2014-Aug-31 04:34N 49°29' E 000°08'0 0.0
2014-Aug-31 03:34N 49°29' E 000°08'0 0.0
2014-Aug-31 02:34N 49°29' E 000°08'0 0.0
2014-Aug-31 01:34N 49°29' E 000°08'0 0.0
2014-Aug-31 00:34N 49°29' E 000°08'0 0.0
2014-Aug-30 23:34N 49°29' E 000°08'0 0.0
2014-Aug-30 22:33N 49°29' E 000°08'0 0.0
2014-Aug-30 21:34N 49°29' E 000°08'0 0.0
2014-Aug-30 20:34N 49°29' E 000°08'0 0.0
2014-Aug-30 19:34N 49°29' E 000°08'0 0.0
2014-Aug-30 18:34N 49°29' E 000°08'0 0.0
2014-Aug-30 17:34N 49°29' E 000°08'0 0.0
2014-Aug-30 16:34N 49°29' E 000°08'0 0.0
2014-Aug-30 15:34N 49°29' E 000°08'0 0.0
2014-Aug-30 14:34N 49°29' E 000°08'0 0.0
2014-Aug-30 13:34N 49°29' E 000°08'0 0.0
2014-Aug-30 12:34N 49°29' E 000°08'0 0.0
2014-Aug-30 11:34N 49°29' E 000°08'0 0.0
2014-Aug-30 10:34N 49°29' E 000°08'0 0.0
2014-Aug-30 09:34N 49°29' E 000°08'0 0.0
2014-Aug-30 08:34N 49°29' E 000°08'0 0.0
2014-Aug-30 07:34N 49°29' E 000°08'0 0.0
2014-Aug-30 06:34N 49°29' E 000°08'0 0.0
2014-Aug-30 05:34N 49°29' E 000°08'0 0.0
2014-Aug-30 04:33N 49°29' E 000°08'0 0.0
2014-Aug-30 03:33N 49°29' E 000°08'0 0.0
2014-Aug-30 02:34N 49°29' E 000°08'0 0.0
2014-Aug-30 01:33N 49°29' E 000°08'0 0.0
2014-Aug-30 00:34N 49°29' E 000°08'0 0.0
2014-Aug-29 23:34N 49°29' E 000°08'0 0.0
2014-Aug-29 22:34N 49°29' E 000°08'0 0.0
2014-Aug-29 21:34N 49°29' E 000°08'0 0.0
2014-Aug-29 20:34N 49°29' E 000°08'0 0.0
2014-Aug-29 19:34N 49°29' E 000°08'0 0.0
2014-Aug-29 18:34N 49°29' E 000°08'0 0.0
2014-Aug-29 17:34N 49°29' E 000°08'0 0.0
2014-Aug-29 16:34N 49°29' E 000°08'0 0.0
2014-Aug-29 15:34N 49°29' E 000°08'0 0.0
2014-Aug-29 14:34N 49°29' E 000°08'0 0.0
2014-Aug-29 13:34N 49°29' E 000°08'0 0.0
2014-Aug-29 12:34N 49°29' E 000°08'0 0.0
2014-Aug-29 11:33N 49°29' E 000°08'0 0.0
2014-Aug-29 10:33N 49°29' E 000°08'0 0.0
2014-Aug-29 09:34N 49°29' E 000°08'0 0.0
2014-Aug-29 08:34N 49°29' E 000°08'0 0.0
2014-Aug-29 07:33N 49°29' E 000°08'0 0.0
2014-Aug-29 06:34N 49°29' E 000°08'0 0.0
2014-Aug-29 05:34N 49°29' E 000°08'0 0.0
2014-Aug-29 04:34N 49°29' E 000°08'0 0.0
2014-Aug-29 03:34N 49°29' E 000°08'0 0.0
2014-Aug-29 02:34N 49°29' E 000°08'0 0.0
2014-Aug-29 01:33N 49°29' E 000°08'0 0.0
2014-Aug-29 00:34N 49°29' E 000°08'0 0.0
2014-Aug-28 23:33N 49°29' E 000°08'0 0.0
2014-Aug-28 22:34N 49°29' E 000°08'0 0.0
2014-Aug-28 21:34N 49°29' E 000°08'0 0.4
2014-Aug-28 20:34N 49°29' E 000°07'3 3.3
2014-Aug-28 19:33N 49°30' E 000°02'7 7.4
2014-Aug-28 18:33N 49°34' W 000°07'9 8.5
2014-Aug-28 17:31N 49°42' W 000°02'49 8.0
2014-Aug-28 11:22N 50°25' E 000°35'5 5.5
2014-Aug-28 10:32N 50°30' E 000°35'8 6.1
2014-Aug-28 09:11N 50°37' E 000°42'4 7.0
2014-Aug-28 08:33N 50°40' E 000°48'9 8.2
2014-Aug-28 07:31N 50°45' E 000°58'28 8.2
2014-Aug-28 04:09N 51°04' E 001°30'4 6.0
2014-Aug-28 03:33N 51°07' E 001°34'5 4.6
2014-Aug-28 02:34N 51°10' E 001°39'5 4.5
2014-Aug-28 01:33N 51°13' E 001°44'1 1.3
2014-Aug-28 00:34N 51°12' E 001°43'3 2.7
2014-Aug-27 23:34N 51°14' E 001°46'9 9.3
2014-Aug-27 22:34N 51°22' E 001°53'1110.9
2014-Aug-27 21:33N 51°30' E 002°04'1111.1
2014-Aug-27 20:33N 51°39' E 002°16'127 8.3
2014-Aug-27 05:09N 53°17' E 004°29'4 7.1
2014-Aug-27 04:33N 53°21' E 004°31'18 8.5
2014-Aug-27 02:27N 53°33' E 004°54'910.2
2014-Aug-27 01:32N 53°37' E 005°08'10 9.7
2014-Aug-27 00:33N 53°42' E 005°21'9 9.2
2014-Aug-26 23:33N 53°48' E 005°33'9 8.6
2014-Aug-26 22:33N 53°54' E 005°44'8 8.2
2014-Aug-26 21:33N 53°59' E 005°55'106 8.6
2014-Aug-26 09:19N 55°17' E 007°58'7 9.2
2014-Aug-26 08:33N 55°22' E 008°07'8 8.4
2014-Aug-26 07:34N 55°27' E 008°18'5 4.0
2014-Aug-26 06:21N 55°28' E 008°27'0 0.0
2014-Aug-26 04:32N 55°28' E 008°27'0 0.0
2014-Aug-26 01:32N 55°28' E 008°27'0 0.0
2014-Aug-26 00:33N 55°28' E 008°27'0 0.0
2014-Aug-25 23:33N 55°28' E 008°27'0 0.0
2014-Aug-25 22:32N 55°28' E 008°27'0 0.0
2014-Aug-25 21:32N 55°28' E 008°27'0 0.0
2014-Aug-25 20:33N 55°28' E 008°27'0 0.0
2014-Aug-25 19:33N 55°28' E 008°27'0 0.0
2014-Aug-25 18:33N 55°28' E 008°27'0 0.0
2014-Aug-25 17:33N 55°28' E 008°27'0 0.0
2014-Aug-25 16:34N 55°28' E 008°27'0 0.0
2014-Aug-25 15:33N 55°28' E 008°27'0 0.0
2014-Aug-25 14:33N 55°28' E 008°27'0 0.0
2014-Aug-25 13:34N 55°28' E 008°27'0 0.0
2014-Aug-25 12:33N 55°28' E 008°27'0 0.0
2014-Aug-25 11:33N 55°28' E 008°27'0 0.0
2014-Aug-25 10:33N 55°28' E 008°27'0 0.0
2014-Aug-25 09:33N 55°28' E 008°27'0 0.0
2014-Aug-25 08:33N 55°28' E 008°27'0 0.0
2014-Aug-25 07:33N 55°28' E 008°27'0 0.0
2014-Aug-25 06:33N 55°28' E 008°27'0 0.0
2014-Aug-25 05:33N 55°28' E 008°27'0 0.0
2014-Aug-25 04:33N 55°28' E 008°27'0 0.0
2014-Aug-25 03:32N 55°28' E 008°27'0 0.0
2014-Aug-25 02:34N 55°28' E 008°27'0 0.0
2014-Aug-25 01:34N 55°28' E 008°27'0 0.0
2014-Aug-25 00:33N 55°28' E 008°27'0 0.0
2014-Aug-24 23:34N 55°28' E 008°27'0 0.0
2014-Aug-24 22:33N 55°28' E 008°27'0 0.0
2014-Aug-24 21:34N 55°28' E 008°27'0 0.0
2014-Aug-24 20:32N 55°28' E 008°27'0 0.0
2014-Aug-24 19:33N 55°28' E 008°27'0 0.0
2014-Aug-24 18:33N 55°28' E 008°27'0 0.0
2014-Aug-24 17:32N 55°28' E 008°27'0 0.0
2014-Aug-24 16:33N 55°28' E 008°27'0 0.0
2014-Aug-24 15:33N 55°28' E 008°27'0 0.0
2014-Aug-24 14:33N 55°28' E 008°27'0 0.0
2014-Aug-24 13:32N 55°28' E 008°27'0 0.0
2014-Aug-24 12:33N 55°28' E 008°27'0 0.0
2014-Aug-24 11:34N 55°28' E 008°27'0 0.0
2014-Aug-24 10:33N 55°28' E 008°27'0 0.0
2014-Aug-24 09:32N 55°28' E 008°27'0 0.0
2014-Aug-24 08:32N 55°28' E 008°27'0 0.0
2014-Aug-24 07:34N 55°28' E 008°27'0 0.0
2014-Aug-24 06:34N 55°28' E 008°27'0 0.0
2014-Aug-24 05:34N 55°28' E 008°27'0 0.0
2014-Aug-24 04:33N 55°28' E 008°27'0 0.0
2014-Aug-24 03:34N 55°28' E 008°27'0 0.0
2014-Aug-24 02:33N 55°28' E 008°27'0 0.0
2014-Aug-24 01:33N 55°28' E 008°27'0 0.0
2014-Aug-24 00:33N 55°28' E 008°27'0 0.0
2014-Aug-23 23:34N 55°28' E 008°27'0 0.0
2014-Aug-23 22:34N 55°28' E 008°27'0 0.0
2014-Aug-23 21:33N 55°28' E 008°27'0 0.0
2014-Aug-23 20:34N 55°28' E 008°27'0 0.0
2014-Aug-23 19:34N 55°28' E 008°27'0 0.0
2014-Aug-23 03:33N 55°28' E 008°27'0 0.0
2014-Aug-23 02:34N 55°28' E 008°27'0 0.0
2014-Aug-23 01:33N 55°28' E 008°27'0 0.0
2014-Aug-23 00:33N 55°28' E 008°27'0 0.0
2014-Aug-22 23:32N 55°28' E 008°27'0 0.0
2014-Aug-22 22:33N 55°28' E 008°27'0 0.0
2014-Aug-22 21:33N 55°28' E 008°27'0 0.0
2014-Aug-22 20:33N 55°28' E 008°27'0 0.0
2014-Aug-22 19:33N 55°28' E 008°27'0 0.0
2014-Aug-22 18:33N 55°28' E 008°27'0 0.0
2014-Aug-22 17:32N 55°28' E 008°27'0 0.0
2014-Aug-22 16:33N 55°28' E 008°27'0 0.0
2014-Aug-22 15:33N 55°28' E 008°27'0 0.0
2014-Aug-22 14:33N 55°28' E 008°27'0 0.0
2014-Aug-22 13:33N 55°28' E 008°27'0 0.0
2014-Aug-22 12:33N 55°28' E 008°27'0 0.0
2014-Aug-22 11:33N 55°28' E 008°27'0 0.0
2014-Aug-22 10:33N 55°28' E 008°27'0 0.0
2014-Aug-22 09:33N 55°28' E 008°27'0 0.0
2014-Aug-22 08:32N 55°28' E 008°27'0 0.0
2014-Aug-22 07:33N 55°28' E 008°27'0 0.0
2014-Aug-22 06:32N 55°28' E 008°27'0 0.0
2014-Aug-22 05:34N 55°28' E 008°27'0 0.0
2014-Aug-22 04:32N 55°28' E 008°27'0 0.0
2014-Aug-22 03:33N 55°28' E 008°27'0 0.0
2014-Aug-22 02:33N 55°28' E 008°27'0 0.0
2014-Aug-22 01:32N 55°28' E 008°27'0 0.0
2014-Aug-22 00:34N 55°28' E 008°27'0 0.0
2014-Aug-21 23:33N 55°28' E 008°27'0 0.0
2014-Aug-21 22:33N 55°28' E 008°27'0 0.0
2014-Aug-21 21:33N 55°28' E 008°27'0 0.0
2014-Aug-21 20:33N 55°28' E 008°27'0 0.0
2014-Aug-21 19:33N 55°28' E 008°27'0 0.0
2014-Aug-21 18:33N 55°28' E 008°27'0 0.0
2014-Aug-21 17:33N 55°28' E 008°27'0 0.0
2014-Aug-21 16:33N 55°28' E 008°27'0 0.0
2014-Aug-21 15:33N 55°28' E 008°27'0 0.0
2014-Aug-21 14:33N 55°28' E 008°27'  
Track history (hours):
 
Tides and Currents Weather Stations Pressure Air Temp Water Temp Dewpoint Dewpoint Depression Visibility Wind Speed Wind Dir Waves Ship Positions

Drobaksund III

Last reported at 2014-Aug-31 13:33 UTC. Time now 2014-Sep-02 02:00 UTC.
Position N 49°34' W 000°20'.

Length 57 m; draft 3 m.

Type: Ship (hazmat cat A). MMSI: 257235400.

Date/timePositionNaut miles runAvg speedWind from/ knotsBaromVisibWave heightAir tempDewpointWater temp
2014-Aug-31 13:33N 49°34' W 000°20'6 6.3
2014-Aug-31 12:33N 49°32' W 000°11'6 5.9
2014-Aug-31 11:33N 49°29' W 000°03'6 5.7
2014-Aug-31 10:34N 49°29' E 000°06'1 1.0
2014-Aug-31 09:34N 49°29' E 000°08'0 0.0
2014-Aug-31 08:34N 49°29' E 000°08'0 0.0
2014-Aug-31 07:34N 49°29' E 000°08'0 0.0
2014-Aug-31 06:34N 49°29' E 000°08'0 0.0
2014-Aug-31 05:34N 49°29' E 000°08'0 0.0
2014-Aug-31 04:34N 49°29' E 000°08'0 0.0
2014-Aug-31 03:34N 49°29' E 000°08'0 0.0
2014-Aug-31 02:34N 49°29' E 000°08'0 0.0
2014-Aug-31 01:34N 49°29' E 000°08'0 0.0
2014-Aug-31 00:34N 49°29' E 000°08'0 0.0
2014-Aug-30 23:34N 49°29' E 000°08'0 0.0
2014-Aug-30 22:33N 49°29' E 000°08'0 0.0
2014-Aug-30 21:34N 49°29' E 000°08'0 0.0
2014-Aug-30 20:34N 49°29' E 000°08'0 0.0
2014-Aug-30 19:34N 49°29' E 000°08'0 0.0
2014-Aug-30 18:34N 49°29' E 000°08'0 0.0
2014-Aug-30 17:34N 49°29' E 000°08'0 0.0
2014-Aug-30 16:34N 49°29' E 000°08'0 0.0
2014-Aug-30 15:34N 49°29' E 000°08'0 0.0
2014-Aug-30 14:34N 49°29' E 000°08'0 0.0
2014-Aug-30 13:34N 49°29' E 000°08'0 0.0
2014-Aug-30 12:34N 49°29' E 000°08'0 0.0
2014-Aug-30 11:34N 49°29' E 000°08'0 0.0
2014-Aug-30 10:34N 49°29' E 000°08'0 0.0
2014-Aug-30 09:34N 49°29' E 000°08'0 0.0
2014-Aug-30 08:34N 49°29' E 000°08'0 0.0
2014-Aug-30 07:34N 49°29' E 000°08'0 0.0
2014-Aug-30 06:34N 49°29' E 000°08'0 0.0
2014-Aug-30 05:34N 49°29' E 000°08'0 0.0
2014-Aug-30 04:33N 49°29' E 000°08'0 0.0
2014-Aug-30 03:33N 49°29' E 000°08'0 0.0
2014-Aug-30 02:34N 49°29' E 000°08'0 0.0
2014-Aug-30 01:33N 49°29' E 000°08'0 0.0
2014-Aug-30 00:34N 49°29' E 000°08'0 0.0
2014-Aug-29 23:34N 49°29' E 000°08'0 0.0
2014-Aug-29 22:34N 49°29' E 000°08'0 0.0
2014-Aug-29 21:34N 49°29' E 000°08'0 0.0
2014-Aug-29 20:34N 49°29' E 000°08'0 0.0
2014-Aug-29 19:34N 49°29' E 000°08'0 0.0
2014-Aug-29 18:34N 49°29' E 000°08'0 0.0
2014-Aug-29 17:34N 49°29' E 000°08'0 0.0
2014-Aug-29 16:34N 49°29' E 000°08'0 0.0
2014-Aug-29 15:34N 49°29' E 000°08'0 0.0
2014-Aug-29 14:34N 49°29' E 000°08'0 0.0
2014-Aug-29 13:34N 49°29' E 000°08'0 0.0
2014-Aug-29 12:34N 49°29' E 000°08'0 0.0
2014-Aug-29 11:33N 49°29' E 000°08'0 0.0
2014-Aug-29 10:33N 49°29' E 000°08'0 0.0
2014-Aug-29 09:34N 49°29' E 000°08'0 0.0
2014-Aug-29 08:34N 49°29' E 000°08'0 0.0
2014-Aug-29 07:33N 49°29' E 000°08'0 0.0
2014-Aug-29 06:34N 49°29' E 000°08'0 0.0
2014-Aug-29 05:34N 49°29' E 000°08'0 0.0
2014-Aug-29 04:34N 49°29' E 000°08'0 0.0
2014-Aug-29 03:34N 49°29' E 000°08'0 0.0
2014-Aug-29 02:34N 49°29' E 000°08'0 0.0
2014-Aug-29 01:33N 49°29' E 000°08'0 0.0
2014-Aug-29 00:34N 49°29' E 000°08'0 0.0
2014-Aug-28 23:33N 49°29' E 000°08'0 0.0
2014-Aug-28 22:34N 49°29' E 000°08'0 0.0
2014-Aug-28 21:34N 49°29' E 000°08'0 0.4
2014-Aug-28 20:34N 49°29' E 000°07'3 3.3
2014-Aug-28 19:33N 49°30' E 000°02'7 7.4
2014-Aug-28 18:33N 49°34' W 000°07'9 8.5
2014-Aug-28 17:31N 49°42' W 000°02'49 8.0
2014-Aug-28 11:22N 50°25' E 000°35'5 5.5
2014-Aug-28 10:32N 50°30' E 000°35'8 6.1
2014-Aug-28 09:11N 50°37' E 000°42'4 7.0
2014-Aug-28 08:33N 50°40' E 000°48'9 8.2
2014-Aug-28 07:31N 50°45' E 000°58'28 8.2
2014-Aug-28 04:09N 51°04' E 001°30'4 6.0
2014-Aug-28 03:33N 51°07' E 001°34'5 4.6
2014-Aug-28 02:34N 51°10' E 001°39'5 4.5
2014-Aug-28 01:33N 51°13' E 001°44'1 1.3
2014-Aug-28 00:34N 51°12' E 001°43'3 2.7
2014-Aug-27 23:34N 51°14' E 001°46'9 9.3
2014-Aug-27 22:34N 51°22' E 001°53'1110.9
2014-Aug-27 21:33N 51°30' E 002°04'1111.1
2014-Aug-27 20:33N 51°39' E 002°16'127 8.3
2014-Aug-27 05:09N 53°17' E 004°29'4 7.1
2014-Aug-27 04:33N 53°21' E 004°31'18 8.5
2014-Aug-27 02:27N 53°33' E 004°54'910.2
2014-Aug-27 01:32N 53°37' E 005°08'10 9.7
2014-Aug-27 00:33N 53°42' E 005°21'9 9.2
2014-Aug-26 23:33N 53°48' E 005°33'9 8.6
2014-Aug-26 22:33N 53°54' E 005°44'8 8.2
2014-Aug-26 21:33N 53°59' E 005°55'106 8.6
2014-Aug-26 09:19N 55°17' E 007°58'7 9.2
2014-Aug-26 08:33N 55°22' E 008°07'8 8.4
2014-Aug-26 07:34N 55°27' E 008°18'5 4.0
2014-Aug-26 06:21N 55°28' E 008°27'0 0.0
2014-Aug-26 04:32N 55°28' E 008°27'0 0.0
2014-Aug-26 01:32N 55°28' E 008°27'0 0.0
2014-Aug-26 00:33N 55°28' E 008°27'0 0.0
2014-Aug-25 23:33N 55°28' E 008°27'0 0.0
2014-Aug-25 22:32N 55°28' E 008°27'0 0.0
2014-Aug-25 21:32N 55°28' E 008°27'0 0.0
2014-Aug-25 20:33N 55°28' E 008°27'0 0.0
2014-Aug-25 19:33N 55°28' E 008°27'0 0.0
2014-Aug-25 18:33N 55°28' E 008°27'0 0.0
2014-Aug-25 17:33N 55°28' E 008°27'0 0.0
2014-Aug-25 16:34N 55°28' E 008°27'0 0.0
2014-Aug-25 15:33N 55°28' E 008°27'0 0.0
2014-Aug-25 14:33N 55°28' E 008°27'0 0.0
2014-Aug-25 13:34N 55°28' E 008°27'0 0.0
2014-Aug-25 12:33N 55°28' E 008°27'0 0.0
2014-Aug-25 11:33N 55°28' E 008°27'0 0.0
2014-Aug-25 10:33N 55°28' E 008°27'0 0.0
2014-Aug-25 09:33N 55°28' E 008°27'0 0.0
2014-Aug-25 08:33N 55°28' E 008°27'0 0.0
2014-Aug-25 07:33N 55°28' E 008°27'0 0.0
2014-Aug-25 06:33N 55°28' E 008°27'0 0.0
2014-Aug-25 05:33N 55°28' E 008°27'0 0.0
2014-Aug-25 04:33N 55°28' E 008°27'0 0.0
2014-Aug-25 03:32N 55°28' E 008°27'0 0.0
2014-Aug-25 02:34N 55°28' E 008°27'0 0.0
2014-Aug-25 01:34N 55°28' E 008°27'0 0.0
2014-Aug-25 00:33N 55°28' E 008°27'0 0.0
2014-Aug-24 23:34N 55°28' E 008°27'0 0.0
2014-Aug-24 22:33N 55°28' E 008°27'0 0.0
2014-Aug-24 21:34N 55°28' E 008°27'0 0.0
2014-Aug-24 20:32N 55°28' E 008°27'0 0.0
2014-Aug-24 19:33N 55°28' E 008°27'0 0.0
2014-Aug-24 18:33N 55°28' E 008°27'0 0.0
2014-Aug-24 17:32N 55°28' E 008°27'0 0.0
2014-Aug-24 16:33N 55°28' E 008°27'0 0.0
2014-Aug-24 15:33N 55°28' E 008°27'0 0.0
2014-Aug-24 14:33N 55°28' E 008°27'0 0.0
2014-Aug-24 13:32N 55°28' E 008°27'0 0.0
2014-Aug-24 12:33N 55°28' E 008°27'0 0.0
2014-Aug-24 11:34N 55°28' E 008°27'0 0.0
2014-Aug-24 10:33N 55°28' E 008°27'0 0.0
2014-Aug-24 09:32N 55°28' E 008°27'0 0.0
2014-Aug-24 08:32N 55°28' E 008°27'0 0.0
2014-Aug-24 07:34N 55°28' E 008°27'0 0.0
2014-Aug-24 06:34N 55°28' E 008°27'0 0.0
2014-Aug-24 05:34N 55°28' E 008°27'0 0.0
2014-Aug-24 04:33N 55°28' E 008°27'0 0.0
2014-Aug-24 03:34N 55°28' E 008°27'0 0.0
2014-Aug-24 02:33N 55°28' E 008°27'0 0.0
2014-Aug-24 01:33N 55°28' E 008°27'0 0.0
2014-Aug-24 00:33N 55°28' E 008°27'0 0.0
2014-Aug-23 23:34N 55°28' E 008°27'0 0.0
2014-Aug-23 22:34N 55°28' E 008°27'0 0.0
2014-Aug-23 21:33N 55°28' E 008°27'0 0.0
2014-Aug-23 20:34N 55°28' E 008°27'0 0.0
2014-Aug-23 19:34N 55°28' E 008°27'0 0.0
2014-Aug-23 03:33N 55°28' E 008°27'0 0.0
2014-Aug-23 02:34N 55°28' E 008°27'0 0.0
2014-Aug-23 01:33N 55°28' E 008°27'0 0.0
2014-Aug-23 00:33N 55°28' E 008°27'0 0.0
2014-Aug-22 23:32N 55°28' E 008°27'0 0.0
2014-Aug-22 22:33N 55°28' E 008°27'0 0.0
2014-Aug-22 21:33N 55°28' E 008°27'0 0.0
2014-Aug-22 20:33N 55°28' E 008°27'0 0.0
2014-Aug-22 19:33N 55°28' E 008°27'0 0.0
2014-Aug-22 18:33N 55°28' E 008°27'0 0.0
2014-Aug-22 17:32N 55°28' E 008°27'0 0.0
2014-Aug-22 16:33N 55°28' E 008°27'0 0.0
2014-Aug-22 15:33N 55°28' E 008°27'0 0.0
2014-Aug-22 14:33N 55°28' E 008°27'0 0.0
2014-Aug-22 13:33N 55°28' E 008°27'0 0.0
2014-Aug-22 12:33N 55°28' E 008°27'0 0.0
2014-Aug-22 11:33N 55°28' E 008°27'0 0.0
2014-Aug-22 10:33N 55°28' E 008°27'0 0.0
2014-Aug-22 09:33N 55°28' E 008°27'0 0.0
2014-Aug-22 08:32N 55°28' E 008°27'0 0.0
2014-Aug-22 07:33N 55°28' E 008°27'0 0.0
2014-Aug-22 06:32N 55°28' E 008°27'0 0.0
2014-Aug-22 05:34N 55°28' E 008°27'0 0.0
2014-Aug-22 04:32N 55°28' E 008°27'0 0.0
2014-Aug-22 03:33N 55°28' E 008°27'0 0.0
2014-Aug-22 02:33N 55°28' E 008°27'0 0.0
2014-Aug-22 01:32N 55°28' E 008°27'0 0.0
2014-Aug-22 00:34N 55°28' E 008°27'0 0.0
2014-Aug-21 23:33N 55°28' E 008°27'0 0.0
2014-Aug-21 22:33N 55°28' E 008°27'0 0.0
2014-Aug-21 21:33N 55°28' E 008°27'0 0.0
2014-Aug-21 20:33N 55°28' E 008°27'0 0.0
2014-Aug-21 19:33N 55°28' E 008°27'0 0.0
2014-Aug-21 18:33N 55°28' E 008°27'0 0.0
2014-Aug-21 17:33N 55°28' E 008°27'0 0.0
2014-Aug-21 16:33N 55°28' E 008°27'0 0.0
2014-Aug-21 15:33N 55°28' E 008°27'0 0.0
2014-Aug-21 14:33N 55°28' E 008°27'  

Dump ship's entire track history